createdAt,value
2018-01-26T00:01:58.477Z,14.70
2018-01-26T00:04:24.517Z,16.63
2018-01-26T00:06:50.549Z,17.03
2018-01-26T00:09:16.671Z,16.10
2018-01-26T00:11:42.684Z,16.17
2018-01-26T00:14:08.692Z,16.90
2018-01-26T00:16:34.754Z,16.77
2018-01-26T00:19:00.801Z,16.13
2018-01-26T00:21:26.804Z,17.73
2018-01-26T00:23:52.893Z,15.40
2018-01-26T00:26:19.248Z,16.27
2018-01-26T00:28:45.271Z,16.03
2018-01-26T00:31:11.300Z,14.93
2018-01-26T00:33:37.317Z,14.40
2018-01-26T00:36:03.373Z,15.60
2018-01-26T00:38:29.401Z,14.20
2018-01-26T00:40:55.420Z,14.73
2018-01-26T00:43:21.403Z,15.03
2018-01-26T00:45:47.507Z,14.20
2018-01-26T00:48:13.596Z,15.00
2018-01-26T00:50:39.648Z,13.87
2018-01-26T00:53:05.700Z,12.97
2018-01-26T00:55:31.716Z,14.00
2018-01-26T00:57:57.768Z,14.07
2018-01-26T01:00:23.836Z,14.70
2018-01-26T01:02:49.880Z,16.30
2018-01-26T01:05:15.900Z,17.17
2018-01-26T01:07:41.940Z,15.03
2018-01-26T01:10:07.980Z,14.07
2018-01-26T01:12:34.036Z,14.07
2018-01-26T01:15:00.066Z,13.90
2018-01-26T01:17:26.094Z,13.83
2018-01-26T01:19:52.184Z,15.00
2018-01-26T01:22:18.220Z,13.60
2018-01-26T01:24:44.272Z,12.60
2018-01-26T01:27:10.369Z,14.63
2018-01-26T01:29:36.393Z,12.93
2018-01-26T01:32:02.449Z,14.90
2018-01-26T01:34:28.517Z,13.60
2018-01-26T01:36:54.535Z,14.90
2018-01-26T01:39:20.604Z,12.50
2018-01-26T01:41:46.606Z,12.30
2018-01-26T01:44:12.720Z,12.10
2018-01-26T01:46:38.937Z,12.47
2018-01-26T01:49:14.923Z,13.10
2018-01-26T01:51:41.064Z,12.07
2018-01-26T01:54:07.172Z,11.50
2018-01-26T01:56:33.141Z,11.20
2018-01-26T01:58:59.111Z,11.53
2018-01-26T02:01:25.140Z,13.53
2018-01-26T02:03:51.225Z,11.37
2018-01-26T02:06:17.331Z,12.77
2018-01-26T02:08:43.359Z,10.67
2018-01-26T02:11:09.740Z,11.40
2018-01-26T02:13:35.840Z,11.80
2018-01-26T02:16:01.905Z,11.10
2018-01-26T02:18:27.926Z,11.07
2018-01-26T02:20:53.954Z,12.17
2018-01-26T02:23:20.300Z,11.53
2018-01-26T02:25:46.328Z,12.30
2018-01-26T02:28:12.336Z,13.67
2018-01-26T02:30:38.324Z,14.87
2018-01-26T02:33:04.339Z,15.30
2018-01-26T02:35:30.707Z,12.77
2018-01-26T02:37:56.747Z,12.00
2018-01-26T02:40:22.854Z,13.37
2018-01-26T02:42:49.013Z,14.50
2018-01-26T02:45:15.044Z,16.17
2018-01-26T02:47:41.109Z,15.67
2018-01-26T02:50:07.231Z,14.70
2018-01-26T02:52:33.272Z,14.70
2018-01-26T02:54:59.300Z,13.13
2018-01-26T02:57:25.480Z,13.70
2018-01-26T02:59:51.508Z,14.30
2018-01-26T03:02:17.623Z,14.30
2018-01-26T03:04:43.662Z,16.00
2018-01-26T03:07:09.671Z,13.73
2018-01-26T03:09:35.696Z,14.33
2018-01-26T03:12:01.740Z,12.57
2018-01-26T03:14:27.783Z,13.27
2018-01-26T03:16:53.816Z,12.17
2018-01-26T03:19:19.841Z,12.40
2018-01-26T03:21:45.859Z,11.83
2018-01-26T03:24:11.956Z,10.87
2018-01-26T03:26:37.952Z,12.27
2018-01-26T03:29:03.964Z,12.80
2018-01-26T03:31:29.979Z,12.37
2018-01-26T03:33:56.034Z,12.40
2018-01-26T03:36:22.068Z,13.43
2018-01-26T03:38:48.104Z,13.57
2018-01-26T03:41:14.196Z,12.50
2018-01-26T03:43:40.203Z,13.47
2018-01-26T03:46:06.245Z,12.70
2018-01-26T03:48:32.257Z,13.20
2018-01-26T03:50:58.260Z,12.33
2018-01-26T03:53:24.326Z,12.60
2018-01-26T03:55:50.328Z,11.63
2018-01-26T03:58:16.376Z,13.07
2018-01-26T04:00:42.396Z,13.07
2018-01-26T04:03:08.442Z,12.70
2018-01-26T04:05:34.497Z,11.60
2018-01-26T04:08:00.523Z,13.50
2018-01-26T04:10:26.574Z,12.50
2018-01-26T04:12:52.600Z,11.43
2018-01-26T04:15:18.757Z,12.20
2018-01-26T04:17:44.781Z,15.03
2018-01-26T04:20:10.785Z,13.13
2018-01-26T04:22:36.833Z,13.17
2018-01-26T04:25:03.181Z,11.10
2018-01-26T04:27:29.250Z,10.97
2018-01-26T04:29:55.514Z,11.73
2018-01-26T04:32:21.596Z,12.27
2018-01-26T04:34:47.636Z,10.70
2018-01-26T04:37:13.669Z,11.70
2018-01-26T04:39:39.709Z,11.33
2018-01-26T04:42:05.733Z,11.33
2018-01-26T04:44:31.749Z,13.37
2018-01-26T04:46:57.772Z,11.33
2018-01-26T04:49:23.813Z,13.90
2018-01-26T04:51:49.891Z,12.87
2018-01-26T04:54:15.936Z,14.20
2018-01-26T04:56:41.965Z,13.60
2018-01-26T04:59:07.976Z,13.97
2018-01-26T05:01:33.997Z,13.27
2018-01-26T05:04:00.058Z,12.57
2018-01-26T05:06:26.097Z,13.20
2018-01-26T05:08:52.092Z,13.60
2018-01-26T05:11:18.105Z,13.60
2018-01-26T05:13:44.125Z,14.70
2018-01-26T05:16:10.209Z,13.30
2018-01-26T05:18:36.249Z,12.97
2018-01-26T05:21:02.288Z,11.57
2018-01-26T05:23:28.308Z,13.43
2018-01-26T05:25:54.341Z,14.40
2018-01-26T05:28:20.393Z,13.40
2018-01-26T05:30:46.485Z,13.13
2018-01-26T05:33:12.598Z,13.87
2018-01-26T05:35:38.688Z,13.93
2018-01-26T05:38:04.804Z,13.57
2018-01-26T05:40:30.906Z,13.33
2018-01-26T05:42:56.917Z,13.87
2018-01-26T05:45:23.028Z,13.73
2018-01-26T05:47:49.127Z,13.37
2018-01-26T05:50:15.181Z,14.77
2018-01-26T05:52:41.184Z,14.00
2018-01-26T05:55:07.240Z,12.60
2018-01-26T05:57:33.281Z,13.80
2018-01-26T05:59:59.296Z,12.60
2018-01-26T06:02:25.449Z,12.60
2018-01-26T06:04:51.464Z,12.73
2018-01-26T06:07:17.496Z,13.13
2018-01-26T06:09:43.569Z,14.43
2018-01-26T06:12:09.600Z,13.47
2018-01-26T06:14:35.628Z,14.60
2018-01-26T06:17:01.662Z,12.77
2018-01-26T06:19:27.724Z,15.63
2018-01-26T06:21:53.740Z,13.27
2018-01-26T06:24:19.813Z,15.37
2018-01-26T06:26:45.861Z,15.50
2018-01-26T06:29:12.200Z,14.77
2018-01-26T06:31:38.257Z,15.33
2018-01-26T06:34:04.289Z,15.80
2018-01-26T06:36:30.331Z,15.00
2018-01-26T06:38:56.426Z,16.20
2018-01-26T06:41:22.448Z,17.17
2018-01-26T06:43:48.508Z,17.40
2018-01-26T06:46:14.528Z,20.17
2018-01-26T06:48:40.524Z,18.30
2018-01-26T06:51:06.596Z,22.00
2018-01-26T06:53:32.728Z,27.80
2018-01-26T06:55:58.816Z,30.10
2018-01-26T06:58:24.828Z,33.87
2018-01-26T07:00:50.949Z,27.63
2018-01-26T07:03:17.024Z,30.67
2018-01-26T07:05:43.168Z,28.60
2018-01-26T07:08:09.249Z,29.20
2018-01-26T07:10:35.248Z,23.77
2018-01-26T07:13:01.385Z,24.20
2018-01-26T07:15:27.441Z,25.47
2018-01-26T07:17:53.468Z,23.97
2018-01-26T07:20:19.501Z,24.20
2018-01-26T07:22:45.548Z,22.27
2018-01-26T07:25:11.646Z,21.53
2018-01-26T07:27:37.660Z,24.73
2018-01-26T07:30:03.810Z,25.77
2018-01-26T07:32:29.840Z,22.40
2018-01-26T07:34:55.991Z,20.87
2018-01-26T07:37:22.013Z,22.80
2018-01-26T07:39:48.024Z,23.00
2018-01-26T07:42:14.092Z,20.90
2018-01-26T07:44:40.119Z,18.57
2018-01-26T07:47:06.176Z,19.10
2018-01-26T07:49:32.265Z,20.30
2018-01-26T07:51:58.307Z,18.73
2018-01-26T07:54:24.342Z,20.20
2018-01-26T07:56:50.371Z,23.17
2018-01-26T07:59:16.432Z,21.50
2018-01-26T08:01:42.475Z,20.80
2018-01-26T08:04:08.549Z,16.97
2018-01-26T08:06:34.631Z,19.57
2018-01-26T08:09:00.712Z,19.10
2018-01-26T08:11:26.852Z,18.33
2018-01-26T08:13:53.136Z,17.80
2018-01-26T08:16:19.152Z,17.73
2018-01-26T08:18:45.157Z,17.80
2018-01-26T08:21:11.211Z,19.07
2018-01-26T08:23:37.277Z,17.13
2018-01-26T08:26:03.316Z,16.33
2018-01-26T08:28:29.400Z,16.43
2018-01-26T08:30:55.531Z,19.50
2018-01-26T08:33:21.516Z,20.63
2018-01-26T08:35:47.548Z,20.30
2018-01-26T08:38:13.590Z,20.27
2018-01-26T08:40:39.668Z,20.27
2018-01-26T08:43:05.662Z,24.33
2018-01-26T08:45:31.697Z,21.40
2018-01-26T08:47:58.537Z,22.40
2018-01-26T08:50:24.570Z,22.87
2018-01-26T08:52:50.633Z,21.17
2018-01-26T08:58:16.544Z,21.57
2018-01-26T09:00:42.592Z,20.87
2018-01-26T09:03:08.624Z,25.50
2018-01-26T09:05:34.663Z,25.83
2018-01-26T09:08:00.700Z,25.97
2018-01-26T09:10:26.756Z,26.23
2018-01-26T09:12:52.812Z,23.17
2018-01-26T09:15:18.841Z,23.13
2018-01-26T09:17:44.892Z,24.20
2018-01-26T09:20:10.988Z,21.70
2018-01-26T09:22:37.061Z,23.50
2018-01-26T09:25:03.152Z,23.47
2018-01-26T09:27:29.121Z,23.50
2018-01-26T09:29:55.185Z,24.03
2018-01-26T09:32:21.233Z,21.53
2018-01-26T09:34:47.260Z,28.07
2018-01-26T09:37:13.288Z,20.67
2018-01-26T09:39:39.322Z,24.27
2018-01-26T09:42:05.375Z,22.57
2018-01-26T09:44:31.453Z,21.07
2018-01-26T09:46:57.449Z,25.83
2018-01-26T09:49:23.520Z,25.20
2018-01-26T09:51:49.628Z,22.77
2018-01-26T09:54:15.740Z,22.10
2018-01-26T09:56:41.670Z,23.03
2018-01-26T09:59:07.740Z,20.67
2018-01-26T10:01:33.767Z,21.27
2018-01-26T10:03:59.825Z,21.63
2018-01-26T10:06:25.848Z,22.83
2018-01-26T10:08:51.889Z,22.93
2018-01-26T10:11:17.921Z,22.03
2018-01-26T10:13:43.917Z,22.10
2018-01-26T10:16:09.981Z,21.30
2018-01-26T10:18:35.997Z,21.80
2018-01-26T10:21:02.013Z,22.47
2018-01-26T10:23:28.044Z,22.90
2018-01-26T10:25:54.100Z,24.80
2018-01-26T10:28:20.124Z,22.63
2018-01-26T10:30:46.132Z,22.97
2018-01-26T10:33:12.214Z,23.33
2018-01-26T10:35:38.319Z,22.73
2018-01-26T10:38:04.308Z,21.60
2018-01-26T10:40:31.235Z,22.37
2018-01-26T10:42:57.267Z,23.20
2018-01-26T10:45:23.288Z,25.90
2018-01-26T10:47:49.349Z,25.37
2018-01-26T10:50:15.383Z,26.00
2018-01-26T10:52:41.437Z,23.37
2018-01-26T10:55:07.478Z,23.13
2018-01-26T10:57:33.493Z,22.93
2018-01-26T10:59:59.511Z,24.63
2018-01-26T11:02:25.526Z,24.73
2018-01-26T11:04:51.516Z,27.23
2018-01-26T11:07:17.547Z,27.00
2018-01-26T11:09:43.549Z,25.10
2018-01-26T11:12:09.562Z,25.57
2018-01-26T11:14:35.541Z,23.13
2018-01-26T11:17:01.577Z,23.53
2018-01-26T11:19:27.589Z,23.53
2018-01-26T11:21:53.645Z,23.60
2018-01-26T11:24:19.649Z,22.70
2018-01-26T11:26:45.689Z,21.83
2018-01-26T11:29:11.751Z,22.63
2018-01-26T11:31:37.760Z,21.23
2018-01-26T11:34:03.829Z,23.23
2018-01-26T11:36:29.812Z,22.63
2018-01-26T11:38:55.863Z,24.70
2018-01-26T11:41:21.941Z,22.37
2018-01-26T11:43:48.010Z,24.20
2018-01-26T11:46:14.043Z,24.10
2018-01-26T11:48:40.053Z,24.73
2018-01-26T11:51:06.134Z,24.10
2018-01-26T11:53:32.188Z,23.57
2018-01-26T11:55:58.269Z,25.07
2018-01-26T11:58:24.292Z,23.13
2018-01-26T12:00:50.301Z,23.00
2018-01-26T12:03:16.320Z,22.67
2018-01-26T12:05:42.304Z,25.23
2018-01-26T12:08:08.377Z,21.30
2018-01-26T12:10:34.436Z,24.07
2018-01-26T12:13:00.476Z,22.07
2018-01-26T12:15:26.492Z,22.67
2018-01-26T12:17:52.511Z,21.80
2018-01-26T12:20:18.541Z,23.77
2018-01-26T12:22:44.549Z,25.90
2018-01-26T12:25:10.583Z,27.03
2018-01-26T12:27:36.604Z,23.17
2018-01-26T12:30:02.949Z,22.30
2018-01-26T12:32:29.052Z,21.30
2018-01-26T12:34:55.108Z,20.43
2018-01-26T12:37:21.132Z,20.43
2018-01-26T12:39:47.205Z,20.10
2018-01-26T12:42:13.240Z,22.83
2018-01-26T12:44:39.272Z,21.97
2018-01-26T12:47:05.321Z,18.50
2018-01-26T12:49:31.348Z,20.13
2018-01-26T12:51:57.361Z,21.30
2018-01-26T12:54:23.445Z,20.57
2018-01-26T12:56:49.493Z,18.63
2018-01-26T12:59:15.493Z,19.63
2018-01-26T13:01:41.592Z,19.90
2018-01-26T13:04:07.661Z,20.30
2018-01-26T13:06:33.681Z,19.43
2018-01-26T13:08:59.716Z,19.47
2018-01-26T13:11:25.764Z,19.80
2018-01-26T13:13:51.844Z,21.43
2018-01-26T13:16:17.968Z,18.33
2018-01-26T13:18:44.037Z,20.37
2018-01-26T13:21:10.048Z,19.87
2018-01-26T13:23:36.076Z,18.30
2018-01-26T13:26:02.399Z,18.73
2018-01-26T13:28:28.442Z,19.33
2018-01-26T13:30:54.488Z,17.90
2018-01-26T13:33:20.557Z,18.47
2018-01-26T13:35:46.861Z,18.90
2018-01-26T13:38:12.906Z,18.63
2018-01-26T13:40:38.976Z,19.30
2018-01-26T13:43:05.060Z,19.93
2018-01-26T13:45:31.138Z,18.27
2018-01-26T13:47:57.212Z,23.97
2018-01-26T13:50:23.264Z,18.50
2018-01-26T13:52:49.368Z,19.90
2018-01-26T13:55:15.476Z,26.73
2018-01-26T13:57:41.593Z,18.10
2018-01-26T14:00:07.675Z,19.87
2018-01-26T14:02:33.681Z,18.20
2018-01-26T14:04:59.739Z,18.13
2018-01-26T14:07:25.811Z,17.60
2018-01-26T14:09:51.813Z,18.47
2018-01-26T14:12:17.832Z,18.27
2018-01-26T14:14:43.891Z,17.10
2018-01-26T14:17:09.886Z,18.73
2018-01-26T14:19:35.881Z,17.10
2018-01-26T14:22:02.609Z,20.27
2018-01-26T14:24:28.625Z,17.90
2018-01-26T14:26:54.645Z,18.90
2018-01-26T14:29:20.716Z,19.03
2018-01-26T14:31:46.738Z,18.47
2018-01-26T14:34:12.792Z,19.33
2018-01-26T14:36:38.844Z,21.30
2018-01-26T14:39:04.899Z,17.83
2018-01-26T14:41:30.932Z,18.13
2018-01-26T14:43:57.026Z,19.00
2018-01-26T14:46:23.066Z,20.77
2018-01-26T14:48:49.101Z,20.90
2018-01-26T14:51:15.133Z,19.83
2018-01-26T14:53:41.096Z,22.00
2018-01-26T14:56:07.192Z,18.73
2018-01-26T14:58:33.172Z,18.13
2018-01-26T15:00:59.168Z,20.10
2018-01-26T15:03:25.648Z,18.93
2018-01-26T15:05:51.764Z,18.93
2018-01-26T15:08:17.845Z,19.70
2018-01-26T15:10:43.876Z,19.40
2018-01-26T15:13:09.936Z,18.90
2018-01-26T15:15:36.021Z,19.20
2018-01-26T15:18:02.013Z,19.83
2018-01-26T15:20:28.129Z,21.00
2018-01-26T15:22:54.254Z,21.67
2018-01-26T15:25:20.333Z,19.90
2018-01-26T15:27:46.368Z,22.40
2018-01-26T15:30:12.425Z,24.20
2018-01-26T15:32:38.446Z,25.70
2018-01-26T15:35:04.584Z,23.23
2018-01-26T15:37:30.708Z,20.67
2018-01-26T15:39:56.732Z,20.10
2018-01-26T15:42:22.853Z,22.27
2018-01-26T15:44:48.996Z,19.73
2018-01-26T15:47:15.002Z,19.03
2018-01-26T15:49:41.045Z,17.70
2018-01-26T15:52:07.131Z,19.20
2018-01-26T15:54:33.222Z,19.20
2018-01-26T15:56:59.298Z,17.70
2018-01-26T15:59:25.336Z,17.17
2018-01-26T16:01:51.431Z,22.40
2018-01-26T16:04:17.605Z,17.00
2018-01-26T16:06:43.640Z,19.43
2018-01-26T16:09:09.736Z,18.60
2018-01-26T16:11:35.793Z,18.10
2018-01-26T16:14:01.999Z,18.17
2018-01-26T16:16:28.534Z,17.50
2018-01-26T16:18:54.579Z,20.43
2018-01-26T16:21:20.809Z,19.20
2018-01-26T16:23:46.858Z,19.67
2018-01-26T16:26:12.972Z,19.10
2018-01-26T16:28:39.032Z,19.17
2018-01-26T16:31:05.056Z,17.77
2018-01-26T16:33:31.040Z,18.67
2018-01-26T16:35:57.112Z,17.00
2018-01-26T16:38:23.208Z,18.80
2018-01-26T16:40:49.382Z,18.20
2018-01-26T16:43:15.775Z,19.77
2018-01-26T16:45:41.944Z,17.93
2018-01-26T16:48:07.953Z,21.87
2018-01-26T16:50:34.102Z,21.03
2018-01-26T16:53:00.103Z,25.60
2018-01-26T16:55:26.189Z,23.93
2018-01-26T16:57:52.225Z,25.53
2018-01-26T17:00:18.289Z,25.33
2018-01-26T17:02:44.325Z,23.83
2018-01-26T17:05:10.373Z,25.93
2018-01-26T17:07:36.772Z,24.50
2018-01-26T17:10:03.316Z,23.80
2018-01-26T17:12:29.994Z,30.87
2018-01-26T17:14:56.052Z,41.77
2018-01-26T17:17:22.110Z,68.67
2018-01-26T17:19:48.253Z,40.90
2018-01-26T17:22:14.386Z,38.27
2018-01-26T17:24:40.974Z,39.40
2018-01-26T17:27:07.008Z,37.57
2018-01-26T17:29:33.053Z,39.23
2018-01-26T17:31:59.120Z,33.93
2018-01-26T17:34:25.221Z,32.50
2018-01-26T17:36:51.311Z,35.20
2018-01-26T17:39:17.468Z,35.80
2018-01-26T17:41:43.557Z,40.73
2018-01-26T17:44:09.652Z,40.97
2018-01-26T17:46:35.645Z,35.27
2018-01-26T17:49:01.676Z,32.83
2018-01-26T17:51:27.694Z,31.30
2018-01-26T17:53:53.728Z,33.80
2018-01-26T17:56:19.858Z,31.10
2018-01-26T17:58:45.840Z,34.20
2018-01-26T18:01:11.989Z,33.40
2018-01-26T18:03:38.013Z,30.50
2018-01-26T18:06:03.992Z,30.97
2018-01-26T18:08:30.083Z,29.37
2018-01-26T18:10:56.097Z,30.00
2018-01-26T18:13:22.196Z,33.27
2018-01-26T18:15:48.229Z,34.20
2018-01-26T18:18:14.308Z,31.60
2018-01-26T18:20:40.364Z,31.90
2018-01-26T18:23:06.390Z,28.33
2018-01-26T18:25:32.461Z,32.10
2018-01-26T18:27:58.481Z,38.90
2018-01-26T18:30:24.545Z,34.70
2018-01-26T18:32:50.600Z,33.73
2018-01-26T18:35:16.762Z,35.63
2018-01-26T18:37:42.733Z,29.77
2018-01-26T18:40:08.741Z,26.20
2018-01-26T18:42:34.832Z,28.77
2018-01-26T18:45:01.282Z,28.37
2018-01-26T18:47:27.300Z,26.60
2018-01-26T18:49:53.368Z,22.70
2018-01-26T18:52:19.435Z,25.33
2018-01-26T18:54:45.500Z,26.17
2018-01-26T18:57:11.508Z,25.40
2018-01-26T18:59:37.596Z,28.30
2018-01-26T19:02:03.659Z,27.23
2018-01-26T19:04:29.683Z,26.70
2018-01-26T19:06:55.741Z,29.17
2018-01-26T19:09:21.757Z,31.10
2018-01-26T19:11:47.792Z,32.07
2018-01-26T19:14:13.833Z,30.10
2018-01-26T19:16:39.784Z,29.80
2018-01-26T19:19:05.803Z,35.80
2018-01-26T19:21:31.807Z,42.80
2018-01-26T19:23:57.844Z,37.10
2018-01-26T19:26:25.033Z,35.50
2018-01-26T19:28:50.993Z,35.47
2018-01-26T19:31:17.029Z,35.17
2018-01-26T19:33:43.069Z,36.60
2018-01-26T19:36:09.057Z,35.77
2018-01-26T19:38:35.052Z,36.63
2018-01-26T19:41:01.110Z,34.80
2018-01-26T19:43:27.201Z,33.03
2018-01-26T19:45:53.287Z,31.57
2018-01-26T19:48:19.324Z,31.97
2018-01-26T19:50:45.776Z,30.13
2018-01-26T19:53:12.323Z,29.53
2018-01-26T19:55:38.396Z,27.50
2018-01-26T19:58:04.446Z,28.27
2018-01-26T20:00:30.512Z,26.23
2018-01-26T20:03:08.859Z,26.30
2018-01-26T20:05:49.120Z,27.33
2018-01-26T20:08:28.360Z,26.20
2018-01-26T20:10:54.456Z,26.57
2018-01-26T20:13:26.598Z,23.70
2018-01-26T20:15:52.713Z,23.90
2018-01-26T20:18:18.805Z,24.83
2018-01-26T20:20:44.888Z,26.40
2018-01-26T20:23:10.877Z,24.87
2018-01-26T20:25:36.936Z,28.00
2018-01-26T20:28:03.279Z,24.60
2018-01-26T20:30:29.781Z,28.63
2018-01-26T20:32:55.772Z,33.20
2018-01-26T20:35:21.806Z,50.50
2018-01-26T20:37:47.924Z,32.53
2018-01-26T20:40:13.933Z,31.17
2018-01-26T20:42:40.060Z,31.80
2018-01-26T20:45:06.099Z,28.73
2018-01-26T20:47:32.127Z,30.43
2018-01-26T20:49:58.221Z,28.13
2018-01-26T20:52:24.248Z,29.47
2018-01-26T20:54:50.239Z,24.10
2018-01-26T20:57:16.323Z,27.37
2018-01-26T20:59:42.357Z,51.47
2018-01-26T21:02:08.424Z,39.57
2018-01-26T21:04:34.464Z,40.10
2018-01-26T21:07:00.516Z,40.20
2018-01-26T21:09:26.483Z,41.73
2018-01-26T21:11:52.606Z,32.90
2018-01-26T21:14:18.683Z,32.10
2018-01-26T21:16:44.783Z,29.90
2018-01-26T21:19:10.786Z,34.37
2018-01-26T21:21:37.151Z,34.77
2018-01-26T21:24:03.627Z,30.50
2018-01-26T21:26:29.718Z,32.53
2018-01-26T21:28:55.828Z,31.57
2018-01-26T21:31:21.953Z,30.70
2018-01-26T21:33:48.059Z,31.90
2018-01-26T21:36:14.173Z,31.90
2018-01-26T21:38:40.308Z,32.27
2018-01-26T21:41:06.365Z,30.60
2018-01-26T21:43:32.428Z,29.63
2018-01-26T21:45:58.490Z,29.30
2018-01-26T21:48:24.520Z,27.50
2018-01-26T21:50:50.561Z,28.97
2018-01-26T21:53:16.591Z,28.23
2018-01-26T21:55:42.653Z,26.73
2018-01-26T21:58:08.684Z,25.47
2018-01-26T22:00:34.685Z,29.80
2018-01-26T22:03:00.833Z,32.00
2018-01-26T22:05:26.961Z,31.10
2018-01-26T22:07:53.141Z,28.70
2018-01-26T22:10:19.156Z,29.80
2018-01-26T22:12:46.489Z,31.27
2018-01-26T22:15:15.468Z,34.10
2018-01-26T22:17:47.000Z,34.63
2018-01-26T22:20:13.661Z,35.57
2018-01-26T22:22:39.680Z,33.77
2018-01-26T22:25:05.736Z,38.03
2018-01-26T22:27:31.791Z,39.50
2018-01-26T22:29:57.815Z,41.47
2018-01-26T22:32:23.770Z,40.37
2018-01-26T22:34:49.804Z,36.03
2018-01-26T22:37:15.797Z,33.43
2018-01-26T22:39:41.836Z,32.27
2018-01-26T22:42:07.891Z,31.10
2018-01-26T22:44:33.909Z,32.80
2018-01-26T22:47:00.012Z,29.83
2018-01-26T22:49:26.053Z,30.90
2018-01-26T22:51:52.080Z,31.03
2018-01-26T22:54:18.468Z,30.57
2018-01-26T22:56:44.546Z,32.67
2018-01-26T22:59:10.573Z,28.67
2018-01-26T23:01:36.669Z,31.70
2018-01-26T23:04:02.735Z,32.50
2018-01-26T23:06:28.833Z,30.07
2018-01-26T23:08:54.895Z,27.80
2018-01-26T23:11:20.928Z,30.43
2018-01-26T23:13:46.989Z,28.40
2018-01-26T23:16:13.084Z,38.60
2018-01-26T23:18:39.088Z,26.77
2018-01-26T23:21:05.105Z,32.47
2018-01-26T23:23:31.098Z,30.53
2018-01-26T23:25:57.141Z,29.53
2018-01-26T23:28:23.087Z,29.43
2018-01-26T23:30:49.105Z,29.03
2018-01-26T23:33:15.116Z,28.43
2018-01-26T23:35:41.152Z,29.87
2018-01-26T23:38:07.237Z,30.43
2018-01-26T23:40:33.253Z,28.67
2018-01-26T23:42:59.252Z,26.47
2018-01-26T23:45:25.288Z,30.13
2018-01-26T23:47:51.291Z,30.67
2018-01-26T23:50:17.364Z,30.30
2018-01-26T23:52:43.393Z,32.27
2018-01-26T23:55:09.424Z,27.97
2018-01-26T23:57:35.412Z,28.00
